< < Back
Terminal Aerodrome Forecast


Current Version              Previous Versions:   1  2  3  4  5  6  7  8  9  

Terminal Aerodrome Forecast

032
FTUS42 KCAE 231900 AAB
TAFCAE
TAF AMD
KCAE 231924Z 2319/2418 07008KT 1SM -RA BR OVC005 WS020/16045KT
     FM232200 10008KT 2SM -RA BR BKN008 WS020/20045KT
      TEMPO 2323/2403 1SM -TSRA BR BKN008CB
     FM240400 17010KT 5SM -SHRA BR OVC008
     FM241500 23014G24KT P6SM SCT015 BKN035=



Latest METAR

361
SAUS80 KWBC 232100
MTRCAE
METAR KCAE 232056Z 11011KT 1 1/2SM RA BR OVC006 17/16 A2987 RMK AO2
SLP112 P0007 60022 T01720161 56038


USA.gov is the U.S. government's official web portal to all federal, state and local government web resources and services.